createdAt,value
2018-06-04T15:37:07.595Z,8.93
2018-06-04T15:39:39.312Z,7.40
2018-06-04T15:42:25.025Z,8.57
2018-06-04T15:44:55.978Z,7.17
2018-06-04T15:47:26.405Z,9.70
2018-06-04T15:50:00.067Z,6.60
2018-06-04T15:52:30.765Z,6.77
2018-06-04T15:55:00.339Z,11.33
2018-06-04T15:57:30.712Z,8.70
2018-06-04T16:00:01.233Z,11.20
2018-06-04T16:02:31.650Z,9.83
2018-06-04T16:05:04.374Z,11.00
2018-06-04T16:07:35.301Z,12.53
2018-06-04T16:10:31.145Z,13.43
2018-06-04T16:13:02.147Z,11.67
2018-06-04T16:15:33.585Z,12.00
2018-06-04T16:18:04.991Z,11.73
2018-06-04T16:20:35.840Z,14.63
2018-06-04T16:24:13.440Z,12.93
2018-06-04T16:31:24.381Z,9.73
2018-06-04T16:33:55.325Z,12.37
2018-06-04T16:36:27.074Z,12.37
2018-06-04T16:38:59.445Z,12.10
2018-06-04T16:41:29.402Z,13.03
2018-06-04T16:44:00.778Z,13.63
2018-06-04T16:46:31.794Z,12.90
2018-06-04T16:49:02.786Z,11.13
2018-06-04T16:51:33.675Z,11.40
2018-06-04T16:54:04.039Z,15.37
2018-06-04T16:56:34.442Z,14.90
2018-06-04T16:59:04.892Z,12.17
2018-06-04T17:01:35.270Z,12.07
2018-06-04T17:04:05.665Z,12.80
2018-06-04T17:06:36.251Z,13.80
2018-06-04T17:09:10.321Z,18.10
2018-06-04T17:11:40.778Z,15.90
2018-06-04T17:14:11.842Z,11.73
2018-06-04T17:16:42.128Z,14.17
2018-06-04T17:22:33.357Z,11.60
2018-06-04T17:25:03.824Z,11.00
2018-06-04T17:27:34.069Z,11.80
2018-06-04T17:30:04.599Z,11.90
2018-06-04T17:32:34.918Z,10.13
2018-06-04T17:35:05.251Z,10.10
2018-06-04T17:37:35.543Z,11.97
2018-06-04T17:40:06.489Z,10.97
2018-06-04T17:42:36.795Z,11.60
2018-06-04T17:45:07.192Z,20.20
2018-06-04T17:47:37.777Z,12.77
2018-06-04T17:50:08.404Z,13.27
2018-06-04T17:52:38.696Z,11.60
2018-06-04T17:55:09.161Z,14.53
2018-06-04T17:57:39.427Z,13.50
2018-06-04T18:00:09.897Z,14.13
2018-06-04T18:02:40.193Z,16.20
2018-06-04T18:05:10.605Z,15.10
2018-06-04T18:07:40.918Z,15.17
2018-06-04T18:10:11.313Z,13.07
2018-06-04T18:12:41.740Z,14.47
2018-06-04T18:15:12.597Z,16.40
2018-06-04T18:17:50.383Z,15.43
2018-06-04T18:20:20.830Z,16.43
2018-06-04T18:22:51.123Z,14.30
2018-06-04T18:25:45.754Z,16.03
2018-06-04T18:28:20.846Z,13.50
2018-06-04T18:30:58.474Z,15.77
2018-06-04T18:33:34.051Z,14.90
2018-06-04T18:36:25.735Z,19.03
2018-06-04T18:38:56.186Z,15.50
2018-06-04T18:41:27.034Z,15.20
2018-06-04T18:43:56.601Z,15.13
2018-06-04T18:46:27.385Z,14.70
2018-06-04T23:15:32.408Z,41.33
2018-06-04T23:18:10.820Z,39.10
2018-06-04T23:20:40.357Z,41.63
2018-06-04T23:23:10.371Z,45.20
2018-06-04T23:25:39.892Z,42.97
2018-06-04T23:28:09.426Z,41.03
2018-06-04T23:30:38.970Z,41.10
2018-06-04T23:33:08.467Z,37.80
2018-06-04T23:35:37.780Z,35.10
2018-06-04T23:38:09.247Z,34.50
2018-06-04T23:40:38.903Z,31.37
2018-06-04T23:43:08.412Z,34.43
2018-06-04T23:45:37.393Z,42.03
2018-06-04T23:48:06.914Z,37.67
2018-06-04T23:50:35.876Z,36.20
2018-06-04T23:53:05.432Z,30.23
2018-06-04T23:55:34.900Z,33.93
2018-06-04T23:58:04.444Z,34.70
